sensor_id;sensor_type;location;lat;lon;timestamp;pressure;altitude;pressure_sealevel;temperature;humidity
77770;BME280;66961;51.482;9.160;2023-12-14T00:00:54;98331.69;;;5.75;100.00
77770;BME280;66961;51.482;9.160;2023-12-14T00:03:19;98339.56;;;5.75;100.00
77770;BME280;66961;51.482;9.160;2023-12-14T00:05:44;98341.22;;;5.76;100.00
77770;BME280;66961;51.482;9.160;2023-12-14T00:08:09;98347.28;;;5.77;100.00
77770;BME280;66961;51.482;9.160;2023-12-14T00:10:35;98344.84;;;5.75;100.00
77770;BME280;66961;51.482;9.160;2023-12-14T00:13:00;98349.09;;;5.76;100.00
77770;BME280;66961;51.482;9.160;2023-12-14T00:15:25;98353.22;;;5.79;100.00
77770;BME280;66961;51.482;9.160;2023-12-14T00:17:50;98354.84;;;5.80;100.00
77770;BME280;66961;51.482;9.160;2023-12-14T00:20:16;98364.53;;;5.79;100.00
77770;BME280;66961;51.482;9.160;2023-12-14T00:22:41;98358.47;;;5.79;100.00
77770;BME280;66961;51.482;9.160;2023-12-14T00:25:06;98363.72;;;5.79;100.00
77770;BME280;66961;51.482;9.160;2023-12-14T00:27:32;98375.88;;;5.80;100.00
77770;BME280;66961;51.482;9.160;2023-12-14T00:29:57;98383.94;;;5.78;100.00
77770;BME280;66961;51.482;9.160;2023-12-14T00:32:22;98389.34;;;5.77;100.00
77770;BME280;66961;51.482;9.160;2023-12-14T00:34:47;98390.00;;;5.79;100.00
77770;BME280;66961;51.482;9.160;2023-12-14T00:37:13;98383.94;;;5.78;100.00
77770;BME280;66961;51.482;9.160;2023-12-14T00:39:38;98396.91;;;5.80;100.00
77770;BME280;66961;51.482;9.160;2023-12-14T00:42:03;98396.59;;;5.83;100.00
77770;BME280;66961;51.482;9.160;2023-12-14T00:44:29;98395.44;;;5.85;100.00
77770;BME280;66961;51.482;9.160;2023-12-14T00:46:54;98398.72;;;5.87;100.00
77770;BME280;66961;51.482;9.160;2023-12-14T00:49:19;98401.22;;;5.89;100.00
77770;BME280;66961;51.482;9.160;2023-12-14T00:51:45;98400.69;;;5.85;100.00
77770;BME280;66961;51.482;9.160;2023-12-14T00:54:10;98398.41;;;5.82;100.00
77770;BME280;66961;51.482;9.160;2023-12-14T00:56:35;98426.16;;;5.85;100.00
77770;BME280;66961;51.482;9.160;2023-12-14T00:59:01;98428.78;;;5.85;100.00
77770;BME280;66961;51.482;9.160;2023-12-14T01:01:26;98433.41;;;5.83;100.00
77770;BME280;66961;51.482;9.160;2023-12-14T01:03:51;98429.28;;;5.80;100.00
77770;BME280;66961;51.482;9.160;2023-12-14T01:06:16;98435.84;;;5.76;100.00
77770;BME280;66961;51.482;9.160;2023-12-14T01:08:42;98445.88;;;5.73;100.00
77770;BME280;66961;51.482;9.160;2023-12-14T01:11:07;98440.31;;;5.68;100.00
77770;BME280;66961;51.482;9.160;2023-12-14T01:13:32;98441.13;;;5.60;100.00
77770;BME280;66961;51.482;9.160;2023-12-14T01:15:57;98456.59;;;5.63;100.00
77770;BME280;66961;51.482;9.160;2023-12-14T01:18:23;98463.31;;;5.57;100.00
77770;BME280;66961;51.482;9.160;2023-12-14T01:20:48;98465.78;;;5.59;100.00
77770;BME280;66961;51.482;9.160;2023-12-14T01:23:13;98469.22;;;5.59;100.00
77770;BME280;66961;51.482;9.160;2023-12-14T01:25:38;98471.34;;;5.56;100.00
77770;BME280;66961;51.482;9.160;2023-12-14T01:28:04;98470.69;;;5.54;100.00
77770;BME280;66961;51.482;9.160;2023-12-14T01:30:29;98481.53;;;5.51;100.00
77770;BME280;66961;51.482;9.160;2023-12-14T01:32:54;98485.31;;;5.48;100.00
77770;BME280;66961;51.482;9.160;2023-12-14T01:35:20;98487.94;;;5.48;100.00
77770;BME280;66961;51.482;9.160;2023-12-14T01:37:45;98487.94;;;5.48;100.00
77770;BME280;66961;51.482;9.160;2023-12-14T01:40:10;98488.75;;;5.49;100.00
77770;BME280;66961;51.482;9.160;2023-12-14T01:42:36;98485.94;;;5.42;100.00
77770;BME280;66961;51.482;9.160;2023-12-14T01:45:01;98493.84;;;5.42;100.00
77770;BME280;66961;51.482;9.160;2023-12-14T01:47:26;98503.84;;;5.39;100.00
77770;BME280;66961;51.482;9.160;2023-12-14T01:49:52;98507.13;;;5.41;100.00
77770;BME280;66961;51.482;9.160;2023-12-14T01:52:17;98509.75;;;5.41;100.00
77770;BME280;66961;51.482;9.160;2023-12-14T01:54:42;98517.13;;;5.37;100.00
77770;BME280;66961;51.482;9.160;2023-12-14T01:57:08;98525.19;;;5.36;100.00
77770;BME280;66961;51.482;9.160;2023-12-14T01:59:33;98526.47;;;5.31;100.00
77770;BME280;66961;51.482;9.160;2023-12-14T02:01:58;98528.44;;;5.29;100.00
77770;BME280;66961;51.482;9.160;2023-12-14T02:04:25;98528.91;;;5.25;100.00
77770;BME280;66961;51.482;9.160;2023-12-14T02:06:51;98536.97;;;5.23;100.00
77770;BME280;66961;51.482;9.160;2023-12-14T02:09:16;98547.78;;;5.20;100.00
77770;BME280;66961;51.482;9.160;2023-12-14T02:11:41;98556.97;;;5.16;100.00
77770;BME280;66961;51.482;9.160;2023-12-14T02:14:08;98561.72;;;5.13;100.00
77770;BME280;66961;51.482;9.160;2023-12-14T02:16:34;98558.44;;;5.11;100.00
77770;BME280;66961;51.482;9.160;2023-12-14T02:18:59;98557.78;;;5.09;100.00
77770;BME280;66961;51.482;9.160;2023-12-14T02:21:25;98558.91;;;5.06;100.00
77770;BME280;66961;51.482;9.160;2023-12-14T02:23:50;98561.69;;;5.05;100.00
77770;BME280;66961;51.482;9.160;2023-12-14T02:26:15;98558.09;;;5.06;100.00
77770;BME280;66961;51.482;9.160;2023-12-14T02:28:41;98559.88;;;5.05;100.00
77770;BME280;66961;51.482;9.160;2023-12-14T02:31:06;98565.91;;;4.97;100.00
77770;BME280;66961;51.482;9.160;2023-12-14T02:33:32;98555.25;;;4.99;100.00
77770;BME280;66961;51.482;9.160;2023-12-14T02:35:57;98554.91;;;4.94;100.00
77770;BME280;66961;51.482;9.160;2023-12-14T02:38:23;98563.28;;;4.97;100.00
77770;BME280;66961;51.482;9.160;2023-12-14T02:40:48;98574.47;;;4.99;100.00
77770;BME280;66961;51.482;9.160;2023-12-14T02:43:13;98579.03;;;4.97;100.00
77770;BME280;66961;51.482;9.160;2023-12-14T02:45:38;98584.44;;;4.96;100.00
77770;BME280;66961;51.482;9.160;2023-12-14T02:48:04;98580.66;;;4.90;100.00
77770;BME280;66961;51.482;9.160;2023-12-14T02:50:30;98588.69;;;4.89;100.00
77770;BME280;66961;51.482;9.160;2023-12-14T02:52:55;98598.19;;;4.90;100.00
77770;BME280;66961;51.482;9.160;2023-12-14T02:55:20;98599.38;;;4.95;100.00
77770;BME280;66961;51.482;9.160;2023-12-14T02:57:45;98620.84;;;4.91;100.00
77770;BME280;66961;51.482;9.160;2023-12-14T03:00:11;98615.09;;;4.87;100.00
77770;BME280;66961;51.482;9.160;2023-12-14T03:02:37;98622.28;;;4.85;100.00
77770;BME280;66961;51.482;9.160;2023-12-14T03:05:03;98625.75;;;4.86;100.00
77770;BME280;66961;51.482;9.160;2023-12-14T03:07:28;98627.84;;;4.82;100.00
77770;BME280;66961;51.482;9.160;2023-12-14T03:09:53;98634.75;;;4.83;100.00
77770;BME280;66961;51.482;9.160;2023-12-14T03:12:18;98637.38;;;4.83;100.00
77770;BME280;66961;51.482;9.160;2023-12-14T03:14:44;98637.53;;;4.82;100.00
77770;BME280;66961;51.482;9.160;2023-12-14T03:17:09;98648.41;;;4.87;100.00
77770;BME280;66961;51.482;9.160;2023-12-14T03:19:34;98641.97;;;4.81;100.00
77770;BME280;66961;51.482;9.160;2023-12-14T03:21:59;98645.72;;;4.79;100.00
77770;BME280;66961;51.482;9.160;2023-12-14T03:24:25;98644.66;;;4.72;100.00
77770;BME280;66961;51.482;9.160;2023-12-14T03:26:50;98649.59;;;4.67;100.00
77770;BME280;66961;51.482;9.160;2023-12-14T03:29:16;98656.63;;;4.66;100.00
77770;BME280;66961;51.482;9.160;2023-12-14T03:31:41;98654.63;;;4.60;100.00
77770;BME280;66961;51.482;9.160;2023-12-14T03:34:07;98661.81;;;4.58;100.00
77770;BME280;66961;51.482;9.160;2023-12-14T03:36:32;98669.00;;;4.56;100.00
77770;BME280;66961;51.482;9.160;2023-12-14T03:38:57;98670.97;;;4.54;100.00
77770;BME280;66961;51.482;9.160;2023-12-14T03:41:22;98668.94;;;4.48;100.00
77770;BME280;66961;51.482;9.160;2023-12-14T03:43:48;98676.34;;;4.52;100.00
77770;BME280;66961;51.482;9.160;2023-12-14T03:46:13;98680.56;;;4.45;100.00
77770;BME280;66961;51.482;9.160;2023-12-14T03:48:38;98681.53;;;4.44;100.00
77770;BME280;66961;51.482;9.160;2023-12-14T03:51:04;98687.06;;;4.41;100.00
77770;BME280;66961;51.482;9.160;2023-12-14T03:53:30;98694.94;;;4.41;100.00
77770;BME280;66961;51.482;9.160;2023-12-14T03:55:55;98706.56;;;4.39;100.00
77770;BME280;66961;51.482;9.160;2023-12-14T03:58:20;98697.72;;;4.40;100.00
77770;BME280;66961;51.482;9.160;2023-12-14T04:00:46;98701.84;;;4.42;100.00
77770;BME280;66961;51.482;9.160;2023-12-14T04:03:11;98705.59;;;4.40;100.00
77770;BME280;66961;51.482;9.160;2023-12-14T04:05:36;98721.94;;;4.33;100.00
77770;BME280;66961;51.482;9.160;2023-12-14T04:08:01;98711.06;;;4.28;100.00
77770;BME280;66961;51.482;9.160;2023-12-14T04:10:27;98716.16;;;4.30;100.00
77770;BME280;66961;51.482;9.160;2023-12-14T04:12:52;98729.19;;;4.22;100.00
77770;BME280;66961;51.482;9.160;2023-12-14T04:15:17;98740.78;;;4.19;100.00
77770;BME280;66961;51.482;9.160;2023-12-14T04:17:42;98739.59;;;4.14;100.00
77770;BME280;66961;51.482;9.160;2023-12-14T04:20:08;98745.53;;;4.16;100.00
77770;BME280;66961;51.482;9.160;2023-12-14T04:22:34;98746.19;;;4.18;100.00
77770;BME280;66961;51.482;9.160;2023-12-14T04:24:59;98740.72;;;4.11;100.00
77770;BME280;66961;51.482;9.160;2023-12-14T04:27:24;98750.81;;;4.06;100.00
77770;BME280;66961;51.482;9.160;2023-12-14T04:29:49;98749.16;;;4.05;100.00
77770;BME280;66961;51.482;9.160;2023-12-14T04:32:15;98761.59;;;4.03;100.00
77770;BME280;66961;51.482;9.160;2023-12-14T04:34:40;98755.38;;;4.04;100.00
77770;BME280;66961;51.482;9.160;2023-12-14T04:37:05;98761.47;;;4.05;100.00
77770;BME280;66961;51.482;9.160;2023-12-14T04:39:30;98768.34;;;4.06;100.00
77770;BME280;66961;51.482;9.160;2023-12-14T04:41:56;98772.91;;;4.04;100.00
77770;BME280;66961;51.482;9.160;2023-12-14T04:44:21;98781.47;;;4.06;100.00
77770;BME280;66961;51.482;9.160;2023-12-14T04:46:49;98784.75;;;4.08;100.00
77770;BME280;66961;51.482;9.160;2023-12-14T04:49:15;98781.31;;;4.07;100.00
77770;BME280;66961;51.482;9.160;2023-12-14T04:51:40;98777.72;;;4.08;100.00
77770;BME280;66961;51.482;9.160;2023-12-14T04:54:05;98784.47;;;4.11;100.00
77770;BME280;66961;51.482;9.160;2023-12-14T04:56:31;98784.34;;;4.12;100.00
77770;BME280;66961;51.482;9.160;2023-12-14T04:58:56;98786.03;;;4.04;100.00
77770;BME280;66961;51.482;9.160;2023-12-14T05:01:21;98799.97;;;4.04;100.00
77770;BME280;66961;51.482;9.160;2023-12-14T05:03:47;98810.75;;;4.01;100.00
77770;BME280;66961;51.482;9.160;2023-12-14T05:06:12;98812.69;;;3.99;100.00
77770;BME280;66961;51.482;9.160;2023-12-14T05:08:37;98819.84;;;3.97;100.00
77770;BME280;66961;51.482;9.160;2023-12-14T05:11:03;98829.53;;;3.96;100.00
77770;BME280;66961;51.482;9.160;2023-12-14T05:13:28;98827.59;;;3.98;100.00
77770;BME280;66961;51.482;9.160;2023-12-14T05:15:53;98834.47;;;3.99;100.00
77770;BME280;66961;51.482;9.160;2023-12-14T05:18:18;98838.47;;;4.04;100.00
77770;BME280;66961;51.482;9.160;2023-12-14T05:20:44;98843.16;;;4.00;100.00
77770;BME280;66961;51.482;9.160;2023-12-14T05:23:09;98842.34;;;3.99;100.00
77770;BME280;66961;51.482;9.160;2023-12-14T05:25:34;98851.31;;;3.97;100.00
77770;BME280;66961;51.482;9.160;2023-12-14T05:28:00;98851.19;;;3.98;100.00
77770;BME280;66961;51.482;9.160;2023-12-14T05:30:25;98852.16;;;3.97;100.00
77770;BME280;66961;51.482;9.160;2023-12-14T05:32:50;98858.78;;;3.92;100.00
77770;BME280;66961;51.482;9.160;2023-12-14T05:35:15;98865.81;;;3.91;100.00
77770;BME280;66961;51.482;9.160;2023-12-14T05:37:41;98869.28;;;3.92;100.00
77770;BME280;66961;51.482;9.160;2023-12-14T05:40:06;98885.69;;;3.94;100.00
77770;BME280;66961;51.482;9.160;2023-12-14T05:42:32;98883.50;;;3.89;100.00
77770;BME280;66961;51.482;9.160;2023-12-14T05:44:57;98883.91;;;3.85;100.00
77770;BME280;66961;51.482;9.160;2023-12-14T05:47:22;98897.84;;;3.76;100.00
77770;BME280;66961;51.482;9.160;2023-12-14T05:49:48;98896.91;;;3.77;100.00
77770;BME280;66961;51.482;9.160;2023-12-14T05:52:13;98912.34;;;3.70;100.00
77770;BME280;66961;51.482;9.160;2023-12-14T05:54:38;98916.34;;;3.64;100.00
77770;BME280;66961;51.482;9.160;2023-12-14T05:57:04;98914.28;;;3.68;100.00
77770;BME280;66961;51.482;9.160;2023-12-14T05:59:29;98915.84;;;3.61;100.00
77770;BME280;66961;51.482;9.160;2023-12-14T06:01:58;98921.75;;;3.63;100.00
77770;BME280;66961;51.482;9.160;2023-12-14T06:04:25;98929.47;;;3.64;100.00
77770;BME280;66961;51.482;9.160;2023-12-14T06:06:51;98930.16;;;3.66;100.00
77770;BME280;66961;51.482;9.160;2023-12-14T06:09:16;98927.13;;;3.61;100.00
77770;BME280;66961;51.482;9.160;2023-12-14T06:11:41;98925.34;;;3.62;100.00
77770;BME280;66961;51.482;9.160;2023-12-14T06:14:07;98927.28;;;3.60;100.00
77770;BME280;66961;51.482;9.160;2023-12-14T06:16:32;98934.44;;;3.58;100.00
77770;BME280;66961;51.482;9.160;2023-12-14T06:18:57;98940.53;;;3.58;100.00
77770;BME280;66961;51.482;9.160;2023-12-14T06:21:22;98935.13;;;3.50;100.00
77770;BME280;66961;51.482;9.160;2023-12-14T06:23:48;98943.00;;;3.50;100.00
77770;BME280;66961;51.482;9.160;2023-12-14T06:26:13;98947.69;;;3.47;100.00
77770;BME280;66961;51.482;9.160;2023-12-14T06:28:38;98956.94;;;3.51;100.00
77770;BME280;66961;51.482;9.160;2023-12-14T06:31:03;98967.97;;;3.54;100.00
77770;BME280;66961;51.482;9.160;2023-12-14T06:33:29;98956.38;;;3.47;100.00
77770;BME280;66961;51.482;9.160;2023-12-14T06:35:54;98973.75;;;3.48;100.00
77770;BME280;66961;51.482;9.160;2023-12-14T06:38:19;98976.38;;;3.48;100.00
77770;BME280;66961;51.482;9.160;2023-12-14T06:40:44;98970.56;;;3.45;100.00
77770;BME280;66961;51.482;9.160;2023-12-14T06:43:10;98984.22;;;3.48;100.00
77770;BME280;66961;51.482;9.160;2023-12-14T06:45:38;98963.41;;;3.37;100.00
77770;BME280;66961;51.482;9.160;2023-12-14T06:48:03;98990.56;;;3.46;100.00
77770;BME280;66961;51.482;9.160;2023-12-14T06:50:29;98994.72;;;3.48;100.00
77770;BME280;66961;51.482;9.160;2023-12-14T06:52:54;98987.53;;;3.41;100.00
77770;BME280;66961;51.482;9.160;2023-12-14T06:55:19;98992.06;;;3.39;100.00
77770;BME280;66961;51.482;9.160;2023-12-14T06:57:44;98999.09;;;3.38;100.00
77770;BME280;66961;51.482;9.160;2023-12-14T07:00:10;99004.47;;;3.37;100.00
77770;BME280;66961;51.482;9.160;2023-12-14T07:02:36;99019.09;;;3.39;100.00
77770;BME280;66961;51.482;9.160;2023-12-14T07:05:01;99017.31;;;3.40;100.00
77770;BME280;66961;51.482;9.160;2023-12-14T07:07:26;99025.03;;;3.41;100.00
77770;BME280;66961;51.482;9.160;2023-12-14T07:09:51;99038.00;;;3.43;100.00
77770;BME280;66961;51.482;9.160;2023-12-14T07:12:17;99040.88;;;3.40;100.00
77770;BME280;66961;51.482;9.160;2023-12-14T07:14:43;99039.22;;;3.39;100.00
77770;BME280;66961;51.482;9.160;2023-12-14T07:17:08;99036.75;;;3.37;100.00
77770;BME280;66961;51.482;9.160;2023-12-14T07:19:34;99047.63;;;3.42;100.00
77770;BME280;66961;51.482;9.160;2023-12-14T07:21:59;99048.75;;;3.40;100.00
77770;BME280;66961;51.482;9.160;2023-12-14T07:24:24;99054.66;;;3.42;100.00
77770;BME280;66961;51.482;9.160;2023-12-14T07:26:49;99059.34;;;3.38;100.00
77770;BME280;66961;51.482;9.160;2023-12-14T07:29:15;99065.56;;;3.37;100.00
77770;BME280;66961;51.482;9.160;2023-12-14T07:31:40;99072.19;;;3.41;100.00
77770;BME280;66961;51.482;9.160;2023-12-14T07:34:05;99074.81;;;3.41;100.00
77770;BME280;66961;51.482;9.160;2023-12-14T07:36:30;99086.38;;;3.39;100.00
77770;BME280;66961;51.482;9.160;2023-12-14T07:38:56;99080.13;;;3.30;100.00
77770;BME280;66961;51.482;9.160;2023-12-14T07:41:21;99083.31;;;3.33;100.00
77770;BME280;66961;51.482;9.160;2023-12-14T07:43:46;99082.75;;;3.30;100.00
77770;BME280;66961;51.482;9.160;2023-12-14T07:46:11;99090.06;;;3.26;100.00
77770;BME280;66961;51.482;9.160;2023-12-14T07:48:37;99095.25;;;3.17;100.00
77770;BME280;66961;51.482;9.160;2023-12-14T07:51:02;99101.75;;;3.22;100.00
77770;BME280;66961;51.482;9.160;2023-12-14T07:53:27;99097.88;;;3.17;100.00
77770;BME280;66961;51.482;9.160;2023-12-14T07:55:53;99111.53;;;3.20;100.00
77770;BME280;66961;51.482;9.160;2023-12-14T07:58:18;99112.19;;;3.13;100.00
77770;BME280;66961;51.482;9.160;2023-12-14T08:00:43;99112.75;;;3.07;100.00
77770;BME280;66961;51.482;9.160;2023-12-14T08:03:08;99115.63;;;3.04;100.00
77770;BME280;66961;51.482;9.160;2023-12-14T08:05:34;99128.88;;;3.12;100.00
77770;BME280;66961;51.482;9.160;2023-12-14T08:07:59;99142.50;;;3.15;100.00
77770;BME280;66961;51.482;9.160;2023-12-14T08:10:24;99144.84;;;3.09;100.00
77770;BME280;66961;51.482;9.160;2023-12-14T08:12:49;99151.06;;;3.08;100.00
77770;BME280;66961;51.482;9.160;2023-12-14T08:15:15;99159.19;;;3.14;100.00
77770;BME280;66961;51.482;9.160;2023-12-14T08:17:40;99159.06;;;3.16;100.00
77770;BME280;66961;51.482;9.160;2023-12-14T08:20:06;99174.06;;;3.14;100.00
77770;BME280;66961;51.482;9.160;2023-12-14T08:22:31;99174.34;;;3.11;100.00
77770;BME280;66961;51.482;9.160;2023-12-14T08:24:56;99179.16;;;3.06;100.00
77770;BME280;66961;51.482;9.160;2023-12-14T08:27:22;99160.44;;;2.89;100.00
77770;BME280;66961;51.482;9.160;2023-12-14T08:29:47;99197.28;;;2.97;100.00
77770;BME280;66961;51.482;9.160;2023-12-14T08:32:12;99201.94;;;2.94;100.00
77770;BME280;66961;51.482;9.160;2023-12-14T08:34:37;99201.94;;;2.94;100.00
77770;BME280;66961;51.482;9.160;2023-12-14T08:37:03;99204.00;;;2.90;100.00
77770;BME280;66961;51.482;9.160;2023-12-14T08:39:28;99218.34;;;2.96;100.00
77770;BME280;66961;51.482;9.160;2023-12-14T08:41:53;99226.22;;;2.96;100.00
77770;BME280;66961;51.482;9.160;2023-12-14T08:44:19;99228.56;;;2.99;100.00
77770;BME280;66961;51.482;9.160;2023-12-14T08:46:45;99241.91;;;2.96;100.00
77770;BME280;66961;51.482;9.160;2023-12-14T08:49:12;99234.63;;;2.99;100.00
77770;BME280;66961;51.482;9.160;2023-12-14T08:51:38;99238.91;;;3.01;100.00
77770;BME280;66961;51.482;9.160;2023-12-14T08:54:04;99242.16;;;2.93;100.00
77770;BME280;66961;51.482;9.160;2023-12-14T08:56:30;99248.56;;;3.00;100.00
77770;BME280;66961;51.482;9.160;2023-12-14T08:58:55;99257.38;;;2.99;100.00
77770;BME280;66961;51.482;9.160;2023-12-14T09:01:21;99264.13;;;3.02;100.00
77770;BME280;66961;51.482;9.160;2023-12-14T09:03:47;99269.81;;;3.07;100.00
77770;BME280;66961;51.482;9.160;2023-12-14T09:06:12;99277.44;;;3.10;100.00
77770;BME280;66961;51.482;9.160;2023-12-14T09:08:37;99284.00;;;3.04;100.00
77770;BME280;66961;51.482;9.160;2023-12-14T09:11:03;99286.25;;;3.09;100.00
77770;BME280;66961;51.482;9.160;2023-12-14T09:13:28;99308.16;;;3.08;100.00
77770;BME280;66961;51.482;9.160;2023-12-14T09:15:53;99306.72;;;3.04;100.00
77770;BME280;66961;51.482;9.160;2023-12-14T09:18:19;99302.69;;;2.99;100.00
77770;BME280;66961;51.482;9.160;2023-12-14T09:20:44;99313.63;;;3.05;100.00
77770;BME280;66961;51.482;9.160;2023-12-14T09:23:09;99324.09;;;3.05;100.00
77770;BME280;66961;51.482;9.160;2023-12-14T09:25:35;99327.56;;;3.05;100.00
77770;BME280;66961;51.482;9.160;2023-12-14T09:28:00;99330.63;;;3.10;100.00
77770;BME280;66961;51.482;9.160;2023-12-14T09:30:25;99339.03;;;3.14;100.00
77770;BME280;66961;51.482;9.160;2023-12-14T09:32:50;99343.72;;;3.10;100.00
77770;BME280;66961;51.482;9.160;2023-12-14T09:35:16;99346.22;;;3.12;100.00
77770;BME280;66961;51.482;9.160;2023-12-14T09:37:41;99348.97;;;3.10;100.00
77770;BME280;66961;51.482;9.160;2023-12-14T09:40:07;99346.22;;;3.12;100.00
77770;BME280;66961;51.482;9.160;2023-12-14T09:42:36;99337.38;;;3.13;100.00
77770;BME280;66961;51.482;9.160;2023-12-14T09:45:02;99338.47;;;3.10;100.00
77770;BME280;66961;51.482;9.160;2023-12-14T09:47:28;99341.28;;;3.18;100.00
77770;BME280;66961;51.482;9.160;2023-12-14T09:49:53;99332.00;;;3.14;100.00
77770;BME280;66961;51.482;9.160;2023-12-14T09:52:18;99338.53;;;3.20;100.00
77770;BME280;66961;51.482;9.160;2023-12-14T09:54:44;99344.34;;;3.23;100.00
77770;BME280;66961;51.482;9.160;2023-12-14T09:57:09;99343.31;;;3.15;100.00
77770;BME280;66961;51.482;9.160;2023-12-14T09:59:34;99346.06;;;3.13;100.00
77770;BME280;66961;51.482;9.160;2023-12-14T10:02:12;99349.25;;;3.17;100.00
77770;BME280;66961;51.482;9.160;2023-12-14T10:04:38;99354.50;;;3.17;100.00
77770;BME280;66961;51.482;9.160;2023-12-14T10:07:04;99357.19;;;3.26;100.00
77770;BME280;66961;51.482;9.160;2023-12-14T10:09:29;99362.81;;;3.22;100.00
77770;BME280;66961;51.482;9.160;2023-12-14T10:12:05;99357.81;;;3.19;100.00
77770;BME280;66961;51.482;9.160;2023-12-14T10:14:31;99368.63;;;3.25;100.00
77770;BME280;66961;51.482;9.160;2023-12-14T10:16:57;99376.84;;;3.21;100.00
77770;BME280;66961;51.482;9.160;2023-12-14T10:19:23;99371.69;;;3.10;100.00
77770;BME280;66961;51.482;9.160;2023-12-14T10:21:49;99359.34;;;3.01;100.00
77770;BME280;66961;51.482;9.160;2023-12-14T10:24:15;99379.47;;;3.00;100.00
77770;BME280;66961;51.482;9.160;2023-12-14T10:26:41;99388.59;;;3.06;100.00
77770;BME280;66961;51.482;9.160;2023-12-14T10:29:07;99388.09;;;3.12;100.00
77770;BME280;66961;51.482;9.160;2023-12-14T10:31:32;99385.28;;;3.04;100.00
77770;BME280;66961;51.482;9.160;2023-12-14T10:33:57;99393.25;;;3.02;100.00
77770;BME280;66961;51.482;9.160;2023-12-14T10:36:25;99404.56;;;3.03;100.00
77770;BME280;66961;51.482;9.160;2023-12-14T10:38:57;99397.31;;;2.95;100.00
77770;BME280;66961;51.482;9.160;2023-12-14T10:41:23;99401.97;;;2.91;100.00
77770;BME280;66961;51.482;9.160;2023-12-14T10:43:50;99417.78;;;2.90;100.00
77770;BME280;66961;51.482;9.160;2023-12-14T10:46:19;99420.41;;;2.90;100.00
77770;BME280;66961;51.482;9.160;2023-12-14T10:48:45;99413.28;;;2.81;100.00
77770;BME280;66961;51.482;9.160;2023-12-14T10:51:12;99425.91;;;2.87;100.00
77770;BME280;66961;51.482;9.160;2023-12-14T10:53:38;99439.22;;;2.84;100.00
77770;BME280;66961;51.482;9.160;2023-12-14T10:56:07;99434.22;;;2.81;100.00
77770;BME280;66961;51.482;9.160;2023-12-14T10:58:51;99435.66;;;2.85;100.00
77770;BME280;66961;51.482;9.160;2023-12-14T11:01:19;99437.19;;;2.87;100.00
77770;BME280;66961;51.482;9.160;2023-12-14T11:03:46;99439.81;;;2.87;100.00
77770;BME280;66961;51.482;9.160;2023-12-14T11:06:31;99442.78;;;2.83;100.00
77770;BME280;66961;51.482;9.160;2023-12-14T11:09:04;99463.25;;;2.78;100.00
77770;BME280;66961;51.482;9.160;2023-12-14T11:11:30;99456.25;;;2.67;100.00
77770;BME280;66961;51.482;9.160;2023-12-14T11:13:55;99462.06;;;2.71;100.00
77770;BME280;66961;51.482;9.160;2023-12-14T11:16:25;99467.06;;;2.74;100.00
77770;BME280;66961;51.482;9.160;2023-12-14T11:24:18;99464.44;;;2.85;100.00
77770;BME280;66961;51.482;9.160;2023-12-14T11:26:43;99477.16;;;2.89;100.00
77770;BME280;66961;51.482;9.160;2023-12-14T11:29:09;99484.66;;;2.94;100.00
77770;BME280;66961;51.482;9.160;2023-12-14T11:31:34;99478.47;;;2.95;100.00
77770;BME280;66961;51.482;9.160;2023-12-14T11:33:59;99477.75;;;2.93;100.00
77770;BME280;66961;51.482;9.160;2023-12-14T11:36:25;99482.50;;;2.99;100.00
77770;BME280;66961;51.482;9.160;2023-12-14T11:38:50;99483.59;;;2.96;100.00
77770;BME280;66961;51.482;9.160;2023-12-14T11:41:16;99488.34;;;3.03;100.00
77770;BME280;66961;51.482;9.160;2023-12-14T11:43:42;99490.13;;;3.02;100.00
77770;BME280;66961;51.482;9.160;2023-12-14T11:46:08;99484.66;;;2.94;100.00
77770;BME280;66961;51.482;9.160;2023-12-14T11:48:34;99504.06;;;3.03;100.00
77770;BME280;66961;51.482;9.160;2023-12-14T11:50:59;99504.75;;;3.05;100.00
77770;BME280;66961;51.482;9.160;2023-12-14T11:53:24;99494.41;;;3.03;100.00
77770;BME280;66961;51.482;9.160;2023-12-14T11:55:51;99502.38;;;3.02;100.00
77770;BME280;66961;51.482;9.160;2023-12-14T11:58:17;99492.88;;;3.01;100.00
77770;BME280;66961;51.482;9.160;2023-12-14T12:00:42;99498.94;;;3.01;100.00
77770;BME280;66961;51.482;9.160;2023-12-14T12:03:11;99494.28;;;3.05;100.00
77770;BME280;66961;51.482;9.160;2023-12-14T12:05:44;99507.50;;;3.03;100.00
77770;BME280;66961;51.482;9.160;2023-12-14T12:08:11;99506.91;;;2.99;100.00
77770;BME280;66961;51.482;9.160;2023-12-14T12:10:42;99508.22;;;2.94;100.00
77770;BME280;66961;51.482;9.160;2023-12-14T12:13:14;99512.16;;;2.99;100.00
77770;BME280;66961;51.482;9.160;2023-12-14T12:15:40;99523.22;;;3.03;100.00
77770;BME280;66961;51.482;9.160;2023-12-14T12:18:06;99528.31;;;3.05;100.00
77770;BME280;66961;51.482;9.160;2023-12-14T12:20:32;99533.09;;;2.99;100.00
77770;BME280;66961;51.482;9.160;2023-12-14T12:22:58;99530.94;;;2.93;100.00
77770;BME280;66961;51.482;9.160;2023-12-14T12:25:23;99527.84;;;2.88;100.00
77770;BME280;66961;51.482;9.160;2023-12-14T12:27:49;99536.66;;;2.87;100.00
77770;BME280;66961;51.482;9.160;2023-12-14T12:30:14;99526.78;;;2.91;100.00
77770;BME280;66961;51.482;9.160;2023-12-14T12:32:39;99531.66;;;2.84;100.00
77770;BME280;66961;51.482;9.160;2023-12-14T12:35:05;99529.75;;;2.86;100.00
77770;BME280;66961;51.482;9.160;2023-12-14T12:37:31;99536.66;;;2.87;100.00
77770;BME280;66961;51.482;9.160;2023-12-14T12:39:56;99540.00;;;2.89;100.00
77770;BME280;66961;51.482;9.160;2023-12-14T12:42:21;99537.84;;;2.83;100.00
77770;BME280;66961;51.482;9.160;2023-12-14T12:44:46;99549.16;;;2.84;100.00
77770;BME280;66961;51.482;9.160;2023-12-14T12:47:12;99550.59;;;2.88;100.00
77770;BME280;66961;51.482;9.160;2023-12-14T12:49:37;99555.81;;;2.88;100.00
77770;BME280;66961;51.482;9.160;2023-12-14T12:52:02;99559.97;;;2.90;100.00
77770;BME280;66961;51.482;9.160;2023-12-14T12:54:28;99557.13;;;2.93;100.00
77770;BME280;66961;51.482;9.160;2023-12-14T12:56:53;99552.13;;;2.90;100.00